Riondel, Canada
Current Conditions -  °F | °C
As of 6:13 PM on Monday 22 Dec 2014 (Local Time) from CYXC Reporting Station
Moderate Fog Moderate Fog  
Wind Chill: 25°   Ceiling: 200
Heat Index: 25°   Visibility: 0.25mi
Dew Point: 23°   Wind: 0mph
Humidity: 93%   Direction: NA
Pressure: 30.19"   Gusts: NA
Location:  49.77°N, 116.85°W
Report Text: CYXC 230213Z 00000KT 1/4SM FZFG VV002 M04/M05 A3019 RMK FG8 SLP269
Loading
Personal Weather Stations






























Interactive Weather Map New forecast layout! Learn more

10-Day Weather Forecast

Advertisements
Track Severe Weather on mobile